sensor_id;sensor_type;location;lat;lon;timestamp;P1;durP1;ratioP1;P2;durP2;ratioP2
19030;SDS011;9648;51.130;13.978;2023-04-23T00:01:49;6.45;;;4.47;;
19030;SDS011;9648;51.130;13.978;2023-04-23T00:04:21;8.20;;;4.22;;
19030;SDS011;9648;51.130;13.978;2023-04-23T00:06:48;6.28;;;4.15;;
19030;SDS011;9648;51.130;13.978;2023-04-23T00:09:16;5.63;;;4.03;;
19030;SDS011;9648;51.130;13.978;2023-04-23T00:11:44;5.13;;;3.72;;
19030;SDS011;9648;51.130;13.978;2023-04-23T00:14:15;6.97;;;3.97;;
19030;SDS011;9648;51.130;13.978;2023-04-23T00:16:42;7.53;;;4.40;;
19030;SDS011;9648;51.130;13.978;2023-04-23T00:19:12;7.20;;;4.78;;
19030;SDS011;9648;51.130;13.978;2023-04-23T00:21:39;8.27;;;4.30;;
19030;SDS011;9648;51.130;13.978;2023-04-23T00:24:06;5.65;;;3.70;;
19030;SDS011;9648;51.130;13.978;2023-04-23T00:26:32;6.70;;;4.00;;
19030;SDS011;9648;51.130;13.978;2023-04-23T00:28:59;5.03;;;3.90;;
19030;SDS011;9648;51.130;13.978;2023-04-23T00:31:27;5.37;;;3.90;;
19030;SDS011;9648;51.130;13.978;2023-04-23T00:33:54;7.00;;;4.20;;
19030;SDS011;9648;51.130;13.978;2023-04-23T00:36:21;7.82;;;4.50;;
19030;SDS011;9648;51.130;13.978;2023-04-23T00:38:48;5.93;;;4.03;;
19030;SDS011;9648;51.130;13.978;2023-04-23T00:41:14;6.97;;;4.45;;
19030;SDS011;9648;51.130;13.978;2023-04-23T00:43:41;8.00;;;4.60;;
19030;SDS011;9648;51.130;13.978;2023-04-23T00:46:09;7.63;;;4.25;;
19030;SDS011;9648;51.130;13.978;2023-04-23T00:48:37;6.00;;;4.13;;
19030;SDS011;9648;51.130;13.978;2023-04-23T00:51:05;6.90;;;4.25;;
19030;SDS011;9648;51.130;13.978;2023-04-23T00:53:32;6.80;;;3.97;;
19030;SDS011;9648;51.130;13.978;2023-04-23T00:56:00;6.88;;;4.80;;
19030;SDS011;9648;51.130;13.978;2023-04-23T00:58:31;7.18;;;4.70;;
19030;SDS011;9648;51.130;13.978;2023-04-23T01:00:58;7.53;;;4.57;;
19030;SDS011;9648;51.130;13.978;2023-04-23T01:03:26;7.95;;;4.60;;
19030;SDS011;9648;51.130;13.978;2023-04-23T01:05:59;7.45;;;4.32;;
19030;SDS011;9648;51.130;13.978;2023-04-23T01:08:26;7.38;;;4.38;;
19030;SDS011;9648;51.130;13.978;2023-04-23T01:10:57;5.40;;;4.00;;
19030;SDS011;9648;51.130;13.978;2023-04-23T01:13:24;6.32;;;4.28;;
19030;SDS011;9648;51.130;13.978;2023-04-23T01:15:53;6.90;;;4.25;;
19030;SDS011;9648;51.130;13.978;2023-04-23T01:18:20;5.25;;;4.15;;
19030;SDS011;9648;51.130;13.978;2023-04-23T01:20:48;6.82;;;4.30;;
19030;SDS011;9648;51.130;13.978;2023-04-23T01:23:16;7.03;;;4.40;;
19030;SDS011;9648;51.130;13.978;2023-04-23T01:25:43;7.90;;;4.60;;
19030;SDS011;9648;51.130;13.978;2023-04-23T01:28:10;5.95;;;4.60;;
19030;SDS011;9648;51.130;13.978;2023-04-23T01:30:39;5.90;;;4.35;;
19030;SDS011;9648;51.130;13.978;2023-04-23T01:33:07;6.10;;;4.27;;
19030;SDS011;9648;51.130;13.978;2023-04-23T01:35:38;5.55;;;4.20;;
19030;SDS011;9648;51.130;13.978;2023-04-23T01:38:05;8.63;;;4.30;;
19030;SDS011;9648;51.130;13.978;2023-04-23T01:40:35;7.65;;;4.63;;
19030;SDS011;9648;51.130;13.978;2023-04-23T01:43:02;8.38;;;5.30;;
19030;SDS011;9648;51.130;13.978;2023-04-23T01:45:29;7.50;;;4.65;;
19030;SDS011;9648;51.130;13.978;2023-04-23T01:47:59;7.28;;;4.65;;
19030;SDS011;9648;51.130;13.978;2023-04-23T01:50:26;7.60;;;4.53;;
19030;SDS011;9648;51.130;13.978;2023-04-23T01:52:53;6.03;;;4.43;;
19030;SDS011;9648;51.130;13.978;2023-04-23T01:55:20;5.85;;;3.90;;
19030;SDS011;9648;51.130;13.978;2023-04-23T01:57:49;7.28;;;4.68;;
19030;SDS011;9648;51.130;13.978;2023-04-23T02:00:16;7.93;;;4.63;;
19030;SDS011;9648;51.130;13.978;2023-04-23T02:02:44;7.30;;;4.32;;
19030;SDS011;9648;51.130;13.978;2023-04-23T02:05:12;6.22;;;4.70;;
19030;SDS011;9648;51.130;13.978;2023-04-23T02:07:40;7.10;;;4.47;;
19030;SDS011;9648;51.130;13.978;2023-04-23T02:10:08;5.57;;;4.20;;
19030;SDS011;9648;51.130;13.978;2023-04-23T02:12:36;6.53;;;4.38;;
19030;SDS011;9648;51.130;13.978;2023-04-23T02:15:05;6.22;;;4.70;;
19030;SDS011;9648;51.130;13.978;2023-04-23T02:17:33;6.65;;;4.30;;
19030;SDS011;9648;51.130;13.978;2023-04-23T02:20:00;6.90;;;4.68;;
19030;SDS011;9648;51.130;13.978;2023-04-23T02:22:27;6.80;;;4.97;;
19030;SDS011;9648;51.130;13.978;2023-04-23T02:24:58;6.57;;;4.72;;
19030;SDS011;9648;51.130;13.978;2023-04-23T02:27:25;6.00;;;4.68;;
19030;SDS011;9648;51.130;13.978;2023-04-23T02:29:52;7.07;;;4.70;;
19030;SDS011;9648;51.130;13.978;2023-04-23T02:32:20;8.43;;;4.80;;
19030;SDS011;9648;51.130;13.978;2023-04-23T02:34:47;7.17;;;4.83;;
19030;SDS011;9648;51.130;13.978;2023-04-23T02:37:14;8.45;;;5.10;;
19030;SDS011;9648;51.130;13.978;2023-04-23T02:39:40;8.93;;;5.18;;
19030;SDS011;9648;51.130;13.978;2023-04-23T02:42:10;8.40;;;4.80;;
19030;SDS011;9648;51.130;13.978;2023-04-23T02:44:37;7.32;;;4.93;;
19030;SDS011;9648;51.130;13.978;2023-04-23T02:47:04;7.60;;;4.50;;
19030;SDS011;9648;51.130;13.978;2023-04-23T02:49:32;8.43;;;4.78;;
19030;SDS011;9648;51.130;13.978;2023-04-23T02:52:01;8.82;;;4.80;;
19030;SDS011;9648;51.130;13.978;2023-04-23T02:54:31;8.10;;;5.10;;
19030;SDS011;9648;51.130;13.978;2023-04-23T02:56:58;6.67;;;4.80;;
19030;SDS011;9648;51.130;13.978;2023-04-23T02:59:28;6.15;;;4.65;;
19030;SDS011;9648;51.130;13.978;2023-04-23T03:01:55;6.90;;;4.78;;
19030;SDS011;9648;51.130;13.978;2023-04-23T03:04:22;8.48;;;5.05;;
19030;SDS011;9648;51.130;13.978;2023-04-23T03:06:50;6.00;;;4.80;;
19030;SDS011;9648;51.130;13.978;2023-04-23T03:09:16;7.27;;;4.83;;
19030;SDS011;9648;51.130;13.978;2023-04-23T03:11:43;8.43;;;5.28;;
19030;SDS011;9648;51.130;13.978;2023-04-23T03:14:10;7.10;;;5.00;;
19030;SDS011;9648;51.130;13.978;2023-04-23T03:16:37;9.93;;;5.38;;
19030;SDS011;9648;51.130;13.978;2023-04-23T03:19:05;8.20;;;5.13;;
19030;SDS011;9648;51.130;13.978;2023-04-23T03:21:32;8.73;;;5.53;;
19030;SDS011;9648;51.130;13.978;2023-04-23T03:24:03;7.85;;;5.43;;
19030;SDS011;9648;51.130;13.978;2023-04-23T03:26:33;9.25;;;5.50;;
19030;SDS011;9648;51.130;13.978;2023-04-23T03:29:00;7.53;;;5.18;;
19030;SDS011;9648;51.130;13.978;2023-04-23T03:31:27;7.80;;;5.25;;
19030;SDS011;9648;51.130;13.978;2023-04-23T03:33:53;7.28;;;5.22;;
19030;SDS011;9648;51.130;13.978;2023-04-23T03:36:20;8.40;;;5.38;;
19030;SDS011;9648;51.130;13.978;2023-04-23T03:38:46;9.13;;;5.65;;
19030;SDS011;9648;51.130;13.978;2023-04-23T03:41:14;9.27;;;5.80;;
19030;SDS011;9648;51.130;13.978;2023-04-23T03:43:41;10.52;;;5.50;;
19030;SDS011;9648;51.130;13.978;2023-04-23T03:46:08;8.30;;;5.40;;
19030;SDS011;9648;51.130;13.978;2023-04-23T03:48:35;7.05;;;5.32;;
19030;SDS011;9648;51.130;13.978;2023-04-23T03:51:01;7.10;;;5.33;;
19030;SDS011;9648;51.130;13.978;2023-04-23T03:53:31;7.50;;;5.50;;
19030;SDS011;9648;51.130;13.978;2023-04-23T03:55:58;8.18;;;5.22;;
19030;SDS011;9648;51.130;13.978;2023-04-23T03:58:26;7.00;;;5.10;;
19030;SDS011;9648;51.130;13.978;2023-04-23T04:00:53;6.88;;;5.15;;
19030;SDS011;9648;51.130;13.978;2023-04-23T04:03:20;8.32;;;5.30;;
19030;SDS011;9648;51.130;13.978;2023-04-23T04:05:46;9.07;;;4.90;;
19030;SDS011;9648;51.130;13.978;2023-04-23T04:08:16;7.32;;;5.07;;
19030;SDS011;9648;51.130;13.978;2023-04-23T04:10:43;8.63;;;5.50;;
19030;SDS011;9648;51.130;13.978;2023-04-23T04:13:12;8.93;;;5.47;;
19030;SDS011;9648;51.130;13.978;2023-04-23T04:15:41;7.68;;;5.47;;
19030;SDS011;9648;51.130;13.978;2023-04-23T04:18:11;8.60;;;5.80;;
19030;SDS011;9648;51.130;13.978;2023-04-23T04:20:37;7.85;;;5.28;;
19030;SDS011;9648;51.130;13.978;2023-04-23T04:23:07;7.05;;;5.05;;
19030;SDS011;9648;51.130;13.978;2023-04-23T04:25:34;8.52;;;5.30;;
19030;SDS011;9648;51.130;13.978;2023-04-23T04:28:04;7.70;;;5.50;;
19030;SDS011;9648;51.130;13.978;2023-04-23T04:30:31;8.38;;;5.18;;
19030;SDS011;9648;51.130;13.978;2023-04-23T04:33:00;7.50;;;5.20;;
19030;SDS011;9648;51.130;13.978;2023-04-23T04:35:30;7.18;;;5.00;;
19030;SDS011;9648;51.130;13.978;2023-04-23T04:37:57;8.77;;;5.90;;
19030;SDS011;9648;51.130;13.978;2023-04-23T04:40:24;8.00;;;5.50;;
19030;SDS011;9648;51.130;13.978;2023-04-23T04:42:52;13.93;;;5.72;;
19030;SDS011;9648;51.130;13.978;2023-04-23T04:45:19;9.75;;;5.38;;
19030;SDS011;9648;51.130;13.978;2023-04-23T04:47:46;7.95;;;5.60;;
19030;SDS011;9648;51.130;13.978;2023-04-23T04:50:14;6.90;;;5.10;;
19030;SDS011;9648;51.130;13.978;2023-04-23T04:52:41;9.63;;;5.50;;
19030;SDS011;9648;51.130;13.978;2023-04-23T04:55:08;7.13;;;5.05;;
19030;SDS011;9648;51.130;13.978;2023-04-23T04:57:35;9.10;;;5.90;;
19030;SDS011;9648;51.130;13.978;2023-04-23T05:00:17;9.15;;;5.47;;
19030;SDS011;9648;51.130;13.978;2023-04-23T05:02:46;8.60;;;5.35;;
19030;SDS011;9648;51.130;13.978;2023-04-23T05:05:14;11.63;;;6.25;;
19030;SDS011;9648;51.130;13.978;2023-04-23T05:07:42;7.55;;;5.32;;
19030;SDS011;9648;51.130;13.978;2023-04-23T05:10:12;7.57;;;5.30;;
19030;SDS011;9648;51.130;13.978;2023-04-23T05:12:39;7.20;;;4.90;;
19030;SDS011;9648;51.130;13.978;2023-04-23T05:15:07;7.95;;;5.13;;
19030;SDS011;9648;51.130;13.978;2023-04-23T05:17:35;7.68;;;4.75;;
19030;SDS011;9648;51.130;13.978;2023-04-23T05:20:01;7.30;;;4.88;;
19030;SDS011;9648;51.130;13.978;2023-04-23T05:22:30;6.90;;;4.32;;
19030;SDS011;9648;51.130;13.978;2023-04-23T05:24:57;6.77;;;5.30;;
19030;SDS011;9648;51.130;13.978;2023-04-23T05:27:23;9.85;;;5.47;;
19030;SDS011;9648;51.130;13.978;2023-04-23T05:29:50;10.88;;;5.65;;
19030;SDS011;9648;51.130;13.978;2023-04-23T05:32:20;8.43;;;5.40;;
19030;SDS011;9648;51.130;13.978;2023-04-23T05:34:47;8.43;;;5.90;;
19030;SDS011;9648;51.130;13.978;2023-04-23T05:37:13;9.02;;;5.20;;
19030;SDS011;9648;51.130;13.978;2023-04-23T05:39:41;7.22;;;4.97;;
19030;SDS011;9648;51.130;13.978;2023-04-23T05:42:11;10.38;;;5.45;;
19030;SDS011;9648;51.130;13.978;2023-04-23T05:44:38;6.93;;;5.15;;
19030;SDS011;9648;51.130;13.978;2023-04-23T05:47:05;8.10;;;5.10;;
19030;SDS011;9648;51.130;13.978;2023-04-23T05:49:33;8.18;;;5.00;;
19030;SDS011;9648;51.130;13.978;2023-04-23T05:51:59;6.53;;;4.25;;
19030;SDS011;9648;51.130;13.978;2023-04-23T05:54:27;7.90;;;4.10;;
19030;SDS011;9648;51.130;13.978;2023-04-23T05:56:55;7.93;;;4.73;;
19030;SDS011;9648;51.130;13.978;2023-04-23T05:59:22;8.83;;;5.20;;
19030;SDS011;9648;51.130;13.978;2023-04-23T06:01:52;7.28;;;4.68;;
19030;SDS011;9648;51.130;13.978;2023-04-23T06:04:19;6.30;;;4.43;;
19030;SDS011;9648;51.130;13.978;2023-04-23T06:06:46;6.70;;;4.50;;
19030;SDS011;9648;51.130;13.978;2023-04-23T06:09:13;6.10;;;4.10;;
19030;SDS011;9648;51.130;13.978;2023-04-23T06:11:39;6.33;;;4.57;;
19030;SDS011;9648;51.130;13.978;2023-04-23T06:14:07;8.20;;;4.30;;
19030;SDS011;9648;51.130;13.978;2023-04-23T06:16:34;9.18;;;4.70;;
19030;SDS011;9648;51.130;13.978;2023-04-23T06:19:01;9.02;;;4.60;;
19030;SDS011;9648;51.130;13.978;2023-04-23T06:21:31;6.38;;;4.28;;
19030;SDS011;9648;51.130;13.978;2023-04-23T06:23:58;6.93;;;4.20;;
19030;SDS011;9648;51.130;13.978;2023-04-23T06:26:25;6.15;;;3.88;;
19030;SDS011;9648;51.130;13.978;2023-04-23T06:28:51;5.80;;;4.32;;
19030;SDS011;9648;51.130;13.978;2023-04-23T06:31:20;5.70;;;3.95;;
19030;SDS011;9648;51.130;13.978;2023-04-23T06:33:46;5.57;;;4.07;;
19030;SDS011;9648;51.130;13.978;2023-04-23T06:36:13;5.60;;;3.88;;
19030;SDS011;9648;51.130;13.978;2023-04-23T06:38:40;4.82;;;3.88;;
19030;SDS011;9648;51.130;13.978;2023-04-23T06:41:09;5.65;;;3.70;;
19030;SDS011;9648;51.130;13.978;2023-04-23T06:43:36;5.47;;;3.60;;
19030;SDS011;9648;51.130;13.978;2023-04-23T06:46:03;5.13;;;3.30;;
19030;SDS011;9648;51.130;13.978;2023-04-23T06:48:34;5.47;;;3.30;;
19030;SDS011;9648;51.130;13.978;2023-04-23T06:51:01;4.63;;;3.22;;
19030;SDS011;9648;51.130;13.978;2023-04-23T06:53:28;7.05;;;3.35;;
19030;SDS011;9648;51.130;13.978;2023-04-23T06:55:55;6.70;;;3.38;;
19030;SDS011;9648;51.130;13.978;2023-04-23T06:58:21;5.47;;;3.27;;
19030;SDS011;9648;51.130;13.978;2023-04-23T07:00:55;6.53;;;3.37;;
19030;SDS011;9648;51.130;13.978;2023-04-23T07:03:23;5.53;;;2.92;;
19030;SDS011;9648;51.130;13.978;2023-04-23T07:05:52;4.22;;;2.88;;
19030;SDS011;9648;51.130;13.978;2023-04-23T07:08:18;5.50;;;3.00;;
19030;SDS011;9648;51.130;13.978;2023-04-23T07:10:45;5.78;;;3.53;;
19030;SDS011;9648;51.130;13.978;2023-04-23T07:13:12;3.80;;;2.70;;
19030;SDS011;9648;51.130;13.978;2023-04-23T07:15:39;3.05;;;2.50;;
19030;SDS011;9648;51.130;13.978;2023-04-23T07:18:06;3.78;;;2.47;;
19030;SDS011;9648;51.130;13.978;2023-04-23T07:20:33;6.03;;;2.20;;
19030;SDS011;9648;51.130;13.978;2023-04-23T07:23:02;4.40;;;2.67;;
19030;SDS011;9648;51.130;13.978;2023-04-23T07:25:32;3.30;;;2.45;;
19030;SDS011;9648;51.130;13.978;2023-04-23T07:27:58;5.22;;;2.60;;
19030;SDS011;9648;51.130;13.978;2023-04-23T07:30:25;5.50;;;2.10;;
19030;SDS011;9648;51.130;13.978;2023-04-23T07:32:52;7.03;;;2.50;;
19030;SDS011;9648;51.130;13.978;2023-04-23T07:35:20;3.77;;;2.27;;
19030;SDS011;9648;51.130;13.978;2023-04-23T07:37:49;4.30;;;2.42;;
19030;SDS011;9648;51.130;13.978;2023-04-23T07:40:22;3.10;;;2.17;;
19030;SDS011;9648;51.130;13.978;2023-04-23T07:42:49;4.93;;;2.40;;
19030;SDS011;9648;51.130;13.978;2023-04-23T07:45:16;5.70;;;2.45;;
19030;SDS011;9648;51.130;13.978;2023-04-23T07:47:43;4.67;;;2.30;;
19030;SDS011;9648;51.130;13.978;2023-04-23T07:50:13;3.70;;;2.47;;
19030;SDS011;9648;51.130;13.978;2023-04-23T07:52:40;4.55;;;2.28;;
19030;SDS011;9648;51.130;13.978;2023-04-23T07:55:07;2.90;;;2.10;;
19030;SDS011;9648;51.130;13.978;2023-04-23T07:57:35;4.22;;;2.28;;
19030;SDS011;9648;51.130;13.978;2023-04-23T08:00:02;4.53;;;2.50;;
19030;SDS011;9648;51.130;13.978;2023-04-23T08:02:35;5.13;;;2.47;;
19030;SDS011;9648;51.130;13.978;2023-04-23T08:05:02;5.53;;;2.63;;
19030;SDS011;9648;51.130;13.978;2023-04-23T08:07:29;3.40;;;2.10;;
19030;SDS011;9648;51.130;13.978;2023-04-23T08:09:56;4.38;;;2.33;;
19030;SDS011;9648;51.130;13.978;2023-04-23T08:12:26;4.22;;;2.08;;
19030;SDS011;9648;51.130;13.978;2023-04-23T08:14:55;3.88;;;2.00;;
19030;SDS011;9648;51.130;13.978;2023-04-23T08:17:22;2.30;;;1.80;;
19030;SDS011;9648;51.130;13.978;2023-04-23T08:19:48;5.72;;;2.40;;
19030;SDS011;9648;51.130;13.978;2023-04-23T08:22:18;4.25;;;2.20;;
19030;SDS011;9648;51.130;13.978;2023-04-23T08:24:45;3.50;;;1.90;;
19030;SDS011;9648;51.130;13.978;2023-04-23T08:27:11;4.67;;;2.30;;
19030;SDS011;9648;51.130;13.978;2023-04-23T08:29:38;4.63;;;2.20;;
19030;SDS011;9648;51.130;13.978;2023-04-23T08:32:06;6.00;;;2.30;;
19030;SDS011;9648;51.130;13.978;2023-04-23T08:34:36;4.65;;;2.33;;
19030;SDS011;9648;51.130;13.978;2023-04-23T08:37:02;4.57;;;2.00;;
19030;SDS011;9648;51.130;13.978;2023-04-23T08:39:32;3.25;;;2.10;;
19030;SDS011;9648;51.130;13.978;2023-04-23T08:42:01;3.60;;;1.60;;
19030;SDS011;9648;51.130;13.978;2023-04-23T08:44:32;2.85;;;1.63;;
19030;SDS011;9648;51.130;13.978;2023-04-23T08:47:01;1.70;;;0.90;;
19030;SDS011;9648;51.130;13.978;2023-04-23T08:49:34;1.42;;;1.02;;
19030;SDS011;9648;51.130;13.978;2023-04-23T08:52:07;3.30;;;1.40;;
19030;SDS011;9648;51.130;13.978;2023-04-23T08:54:40;2.70;;;1.37;;
19030;SDS011;9648;51.130;13.978;2023-04-23T08:57:10;3.60;;;1.33;;
19030;SDS011;9648;51.130;13.978;2023-04-23T08:59:39;2.78;;;1.20;;
19030;SDS011;9648;51.130;13.978;2023-04-23T09:02:06;2.67;;;1.20;;
19030;SDS011;9648;51.130;13.978;2023-04-23T09:04:38;2.20;;;1.30;;
19030;SDS011;9648;51.130;13.978;2023-04-23T09:07:05;2.30;;;1.00;;
19030;SDS011;9648;51.130;13.978;2023-04-23T09:09:35;1.40;;;1.00;;
19030;SDS011;9648;51.130;13.978;2023-04-23T09:12:04;1.90;;;1.05;;
19030;SDS011;9648;51.130;13.978;2023-04-23T09:14:31;1.30;;;0.90;;
19030;SDS011;9648;51.130;13.978;2023-04-23T09:16:58;3.40;;;1.30;;
19030;SDS011;9648;51.130;13.978;2023-04-23T09:19:25;1.73;;;1.20;;
19030;SDS011;9648;51.130;13.978;2023-04-23T09:21:54;2.25;;;1.17;;
19030;SDS011;9648;51.130;13.978;2023-04-23T09:24:21;1.90;;;1.30;;
19030;SDS011;9648;51.130;13.978;2023-04-23T09:26:49;2.03;;;1.20;;
19030;SDS011;9648;51.130;13.978;2023-04-23T09:29:17;2.63;;;1.10;;
19030;SDS011;9648;51.130;13.978;2023-04-23T09:31:45;2.03;;;1.20;;
19030;SDS011;9648;51.130;13.978;2023-04-23T09:34:13;2.88;;;1.40;;
19030;SDS011;9648;51.130;13.978;2023-04-23T09:36:42;1.80;;;1.50;;
19030;SDS011;9648;51.130;13.978;2023-04-23T09:39:15;3.72;;;2.83;;
19030;SDS011;9648;51.130;13.978;2023-04-23T09:41:43;5.88;;;3.38;;
19030;SDS011;9648;51.130;13.978;2023-04-23T09:44:16;3.22;;;1.50;;
19030;SDS011;9648;51.130;13.978;2023-04-23T09:46:44;1.50;;;1.20;;
19030;SDS011;9648;51.130;13.978;2023-04-23T09:49:11;1.90;;;1.20;;
19030;SDS011;9648;51.130;13.978;2023-04-23T09:51:38;3.40;;;1.80;;
19030;SDS011;9648;51.130;13.978;2023-04-23T09:54:09;2.90;;;1.80;;
19030;SDS011;9648;51.130;13.978;2023-04-23T09:56:39;4.90;;;1.55;;
19030;SDS011;9648;51.130;13.978;2023-04-23T09:59:18;2.53;;;1.30;;
19030;SDS011;9648;51.130;13.978;2023-04-23T10:01:48;4.60;;;1.40;;
19030;SDS011;9648;51.130;13.978;2023-04-23T10:04:16;1.20;;;0.90;;
19030;SDS011;9648;51.130;13.978;2023-04-23T10:06:44;1.90;;;1.13;;
19030;SDS011;9648;51.130;13.978;2023-04-23T10:09:11;2.55;;;1.00;;
19030;SDS011;9648;51.130;13.978;2023-04-23T10:11:39;1.40;;;1.10;;
19030;SDS011;9648;51.130;13.978;2023-04-23T10:14:07;1.48;;;0.88;;
19030;SDS011;9648;51.130;13.978;2023-04-23T10:16:37;3.67;;;1.30;;
19030;SDS011;9648;51.130;13.978;2023-04-23T10:19:05;2.00;;;0.88;;
19030;SDS011;9648;51.130;13.978;2023-04-23T10:21:35;1.73;;;1.00;;
19030;SDS011;9648;51.130;13.978;2023-04-23T10:24:03;1.60;;;1.10;;
19030;SDS011;9648;51.130;13.978;2023-04-23T10:26:31;2.40;;;1.55;;
19030;SDS011;9648;51.130;13.978;2023-04-23T10:29:00;2.23;;;1.80;;
19030;SDS011;9648;51.130;13.978;2023-04-23T10:31:30;1.58;;;0.82;;
19030;SDS011;9648;51.130;13.978;2023-04-23T10:33:58;1.30;;;0.60;;
19030;SDS011;9648;51.130;13.978;2023-04-23T10:36:29;1.58;;;1.20;;
19030;SDS011;9648;51.130;13.978;2023-04-23T10:39:00;1.52;;;0.90;;
19030;SDS011;9648;51.130;13.978;2023-04-23T10:41:33;1.80;;;0.80;;
19030;SDS011;9648;51.130;13.978;2023-04-23T10:44:03;1.20;;;0.70;;
19030;SDS011;9648;51.130;13.978;2023-04-23T10:46:31;1.48;;;0.80;;
19030;SDS011;9648;51.130;13.978;2023-04-23T10:49:05;0.70;;;0.68;;
19030;SDS011;9648;51.130;13.978;2023-04-23T10:51:33;0.70;;;0.70;;
19030;SDS011;9648;51.130;13.978;2023-04-23T10:54:01;1.00;;;0.80;;
19030;SDS011;9648;51.130;13.978;2023-04-23T10:56:29;1.30;;;0.90;;
19030;SDS011;9648;51.130;13.978;2023-04-23T10:58:55;1.70;;;0.75;;
19030;SDS011;9648;51.130;13.978;2023-04-23T11:01:24;0.85;;;0.60;;
19030;SDS011;9648;51.130;13.978;2023-04-23T11:03:54;1.63;;;0.60;;
19030;SDS011;9648;51.130;13.978;2023-04-23T11:09:30;1.60;;;0.80;;
19030;SDS011;9648;51.130;13.978;2023-04-23T11:12:01;1.80;;;0.73;;
19030;SDS011;9648;51.130;13.978;2023-04-23T11:14:35;1.60;;;0.63;;
19030;SDS011;9648;51.130;13.978;2023-04-23T11:17:09;0.95;;;0.63;;
19030;SDS011;9648;51.130;13.978;2023-04-23T11:19:37;1.40;;;0.70;;
19030;SDS011;9648;51.130;13.978;2023-04-23T11:22:05;3.10;;;0.73;;
19030;SDS011;9648;51.130;13.978;2023-04-23T11:24:33;1.77;;;0.70;;
19030;SDS011;9648;51.130;13.978;2023-04-23T11:27:06;4.32;;;2.58;;
19030;SDS011;9648;51.130;13.978;2023-04-23T11:29:34;27.77;;;15.27;;
19030;SDS011;9648;51.130;13.978;2023-04-23T11:32:02;1.08;;;0.80;;
19030;SDS011;9648;51.130;13.978;2023-04-23T11:34:39;3.15;;;1.00;;
19030;SDS011;9648;51.130;13.978;2023-04-23T11:37:08;1.50;;;0.75;;
19030;SDS011;9648;51.130;13.978;2023-04-23T11:39:36;1.80;;;0.80;;
19030;SDS011;9648;51.130;13.978;2023-04-23T11:42:08;1.70;;;0.90;;
19030;SDS011;9648;51.130;13.978;2023-04-23T11:44:36;1.98;;;0.60;;
19030;SDS011;9648;51.130;13.978;2023-04-23T11:47:03;1.88;;;0.80;;
19030;SDS011;9648;51.130;13.978;2023-04-23T11:49:33;3.17;;;0.90;;
19030;SDS011;9648;51.130;13.978;2023-04-23T11:52:05;1.75;;;1.10;;
19030;SDS011;9648;51.130;13.978;2023-04-23T11:54:35;1.52;;;0.80;;
19030;SDS011;9648;51.130;13.978;2023-04-23T11:57:04;1.20;;;0.90;;
19030;SDS011;9648;51.130;13.978;2023-04-23T11:59:32;0.80;;;0.80;;
19030;SDS011;9648;51.130;13.978;2023-04-23T12:01:59;1.88;;;0.80;;
19030;SDS011;9648;51.130;13.978;2023-04-23T12:04:26;2.45;;;1.10;;
19030;SDS011;9648;51.130;13.978;2023-04-23T12:06:54;1.15;;;0.90;;
19030;SDS011;9648;51.130;13.978;2023-04-23T12:09:24;0.93;;;0.73;;
19030;SDS011;9648;51.130;13.978;2023-04-23T12:11:52;1.80;;;0.80;;
19030;SDS011;9648;51.130;13.978;2023-04-23T12:14:22;1.15;;;0.80;;
19030;SDS011;9648;51.130;13.978;2023-04-23T12:16:55;1.40;;;0.70;;
19030;SDS011;9648;51.130;13.978;2023-04-23T12:19:27;2.45;;;0.77;;
19030;SDS011;9648;51.130;13.978;2023-04-23T12:21:58;1.23;;;0.70;;
19030;SDS011;9648;51.130;13.978;2023-04-23T12:24:28;1.70;;;0.90;;
19030;SDS011;9648;51.130;13.978;2023-04-23T12:26:55;0.82;;;0.70;;
19030;SDS011;9648;51.130;13.978;2023-04-23T12:29:28;0.60;;;0.60;;
19030;SDS011;9648;51.130;13.978;2023-04-23T12:31:56;1.42;;;0.75;;
19030;SDS011;9648;51.130;13.978;2023-04-23T12:34:24;2.10;;;0.70;;
19030;SDS011;9648;51.130;13.978;2023-04-23T12:36:55;0.60;;;0.60;;
19030;SDS011;9648;51.130;13.978;2023-04-23T12:39:25;1.15;;;0.70;;
19030;SDS011;9648;51.130;13.978;2023-04-23T12:41:58;0.80;;;0.63;;
19030;SDS011;9648;51.130;13.978;2023-04-23T12:44:26;1.10;;;0.80;;
19030;SDS011;9648;51.130;13.978;2023-04-23T12:46:54;0.93;;;0.80;;
19030;SDS011;9648;51.130;13.978;2023-04-23T12:49:22;1.25;;;0.80;;
19030;SDS011;9648;51.130;13.978;2023-04-23T12:51:48;1.70;;;0.70;;
19030;SDS011;9648;51.130;13.978;2023-04-23T12:54:16;1.42;;;0.80;;
19030;SDS011;9648;51.130;13.978;2023-04-23T12:56:44;1.20;;;0.70;;
19030;SDS011;9648;51.130;13.978;2023-04-23T12:59:11;1.58;;;0.70;;
19030;SDS011;9648;51.130;13.978;2023-04-23T13:01:38;1.67;;;0.80;;
19030;SDS011;9648;51.130;13.978;2023-04-23T13:04:05;1.30;;;0.80;;
19030;SDS011;9648;51.130;13.978;2023-04-23T13:06:32;3.10;;;0.90;;
19030;SDS011;9648;51.130;13.978;2023-04-23T13:09:02;1.33;;;0.75;;
19030;SDS011;9648;51.130;13.978;2023-04-23T13:11:29;1.85;;;0.80;;
19030;SDS011;9648;51.130;13.978;2023-04-23T13:13:57;1.15;;;0.80;;
19030;SDS011;9648;51.130;13.978;2023-04-23T13:16:24;1.53;;;0.73;;
19030;SDS011;9648;51.130;13.978;2023-04-23T13:18:51;0.93;;;0.70;;
19030;SDS011;9648;51.130;13.978;2023-04-23T13:21:17;1.02;;;0.70;;
19030;SDS011;9648;51.130;13.978;2023-04-23T13:23:44;1.08;;;0.70;;
19030;SDS011;9648;51.130;13.978;2023-04-23T13:26:11;1.77;;;0.80;;
19030;SDS011;9648;51.130;13.978;2023-04-23T13:28:38;1.50;;;0.80;;
19030;SDS011;9648;51.130;13.978;2023-04-23T13:31:09;0.90;;;0.70;;
19030;SDS011;9648;51.130;13.978;2023-04-23T13:33:36;1.33;;;0.90;;
19030;SDS011;9648;51.130;13.978;2023-04-23T13:36:07;1.00;;;0.80;;
19030;SDS011;9648;51.130;13.978;2023-04-23T13:38:37;1.52;;;0.60;;
19030;SDS011;9648;51.130;13.978;2023-04-23T13:41:04;1.10;;;0.60;;
19030;SDS011;9648;51.130;13.978;2023-04-23T13:43:33;1.70;;;0.63;;
19030;SDS011;9648;51.130;13.978;2023-04-23T13:46:00;1.35;;;0.80;;
19030;SDS011;9648;51.130;13.978;2023-04-23T13:48:28;3.15;;;1.00;;
19030;SDS011;9648;51.130;13.978;2023-04-23T13:50:55;1.40;;;0.80;;
19030;SDS011;9648;51.130;13.978;2023-04-23T13:53:22;1.63;;;1.00;;
19030;SDS011;9648;51.130;13.978;2023-04-23T13:55:49;0.90;;;0.70;;
19030;SDS011;9648;51.130;13.978;2023-04-23T13:58:16;0.80;;;0.60;;
19030;SDS011;9648;51.130;13.978;2023-04-23T14:00:43;1.13;;;0.70;;
19030;SDS011;9648;51.130;13.978;2023-04-23T14:03:10;1.92;;;0.70;;
19030;SDS011;9648;51.130;13.978;2023-04-23T14:05:38;1.40;;;1.00;;
19030;SDS011;9648;51.130;13.978;2023-04-23T14:08:04;0.90;;;0.70;;
19030;SDS011;9648;51.130;13.978;2023-04-23T14:10:32;1.10;;;0.97;;
19030;SDS011;9648;51.130;13.978;2023-04-23T14:13:02;1.20;;;1.00;;
19030;SDS011;9648;51.130;13.978;2023-04-23T14:15:32;1.45;;;0.93;;
19030;SDS011;9648;51.130;13.978;2023-04-23T14:17:59;1.33;;;1.00;;
19030;SDS011;9648;51.130;13.978;2023-04-23T14:20:26;2.00;;;1.60;;
19030;SDS011;9648;51.130;13.978;2023-04-23T14:23:00;4.00;;;1.85;;
19030;SDS011;9648;51.130;13.978;2023-04-23T14:25:29;2.13;;;1.60;;
19030;SDS011;9648;51.130;13.978;2023-04-23T14:28:01;2.22;;;1.40;;
19030;SDS011;9648;51.130;13.978;2023-04-23T14:30:41;2.20;;;1.60;;
19030;SDS011;9648;51.130;13.978;2023-04-23T14:33:07;4.47;;;1.60;;
19030;SDS011;9648;51.130;13.978;2023-04-23T14:35:34;3.83;;;2.00;;
19030;SDS011;9648;51.130;13.978;2023-04-23T14:38:02;2.90;;;1.73;;
19030;SDS011;9648;51.130;13.978;2023-04-23T14:40:32;2.55;;;1.83;;
19030;SDS011;9648;51.130;13.978;2023-04-23T14:43:01;2.15;;;1.80;;
19030;SDS011;9648;51.130;13.978;2023-04-23T14:45:28;4.77;;;2.13;;
19030;SDS011;9648;51.130;13.978;2023-04-23T14:48:00;2.20;;;1.80;;
19030;SDS011;9648;51.130;13.978;2023-04-23T14:50:27;2.93;;;2.30;;
19030;SDS011;9648;51.130;13.978;2023-04-23T14:52:53;3.00;;;2.10;;
19030;SDS011;9648;51.130;13.978;2023-04-23T14:55:23;2.85;;;2.05;;
19030;SDS011;9648;51.130;13.978;2023-04-23T14:57:52;2.80;;;2.08;;